createdAt,value
2022-10-04T00:00:39.828Z,7.45
2022-10-04T00:03:39.154Z,7.39
2022-10-04T00:06:16.277Z,7.34
2022-10-04T00:08:51.144Z,7.31
2022-10-04T00:11:39.166Z,7.28
2022-10-04T00:14:16.475Z,7.26
2022-10-04T00:16:45.365Z,7.24
2022-10-04T00:19:16.313Z,7.24
2022-10-04T00:21:53.611Z,7.26
2022-10-04T00:24:32.637Z,7.29
2022-10-04T00:27:30.080Z,7.34
2022-10-04T00:30:04.402Z,7.42
2022-10-04T00:32:41.483Z,7.50
2022-10-04T00:35:27.646Z,7.56
2022-10-04T00:37:59.921Z,7.64
2022-10-04T00:40:39.814Z,7.71
2022-10-04T00:43:18.102Z,7.77
2022-10-04T00:45:52.461Z,7.84
2022-10-04T00:48:46.920Z,7.91
2022-10-04T00:51:34.653Z,7.97
2022-10-04T00:54:41.578Z,7.99
2022-10-04T00:57:17.828Z,7.99
2022-10-04T00:59:49.945Z,7.98
2022-10-04T01:02:21.826Z,7.96
2022-10-04T01:05:09.303Z,7.95
2022-10-04T01:08:04.668Z,7.94
2022-10-04T01:10:41.033Z,7.93
2022-10-04T01:13:21.659Z,7.90
2022-10-04T01:16:11.934Z,7.86
2022-10-04T01:18:43.238Z,7.82
2022-10-04T01:21:20.659Z,7.78
2022-10-04T01:23:57.916Z,7.75
2022-10-04T01:26:34.757Z,7.74
2022-10-04T01:29:10.325Z,7.72
2022-10-04T01:31:45.963Z,7.71
2022-10-04T01:34:19.860Z,7.72
2022-10-04T01:36:49.960Z,7.71
2022-10-04T01:39:20.469Z,7.72
2022-10-04T01:42:24.054Z,7.74
2022-10-04T01:45:02.984Z,7.74
2022-10-04T01:47:35.249Z,7.72
2022-10-04T01:50:15.688Z,7.71
2022-10-04T01:52:56.178Z,7.67
2022-10-04T01:55:29.645Z,7.66
2022-10-04T01:58:17.588Z,7.68
2022-10-04T02:00:57.139Z,7.73
2022-10-04T02:03:39.939Z,7.77
2022-10-04T02:06:10.962Z,7.84
2022-10-04T02:08:47.276Z,7.90
2022-10-04T02:11:21.464Z,7.94
2022-10-04T02:13:53.713Z,7.99
2022-10-04T02:16:38.834Z,8.01
2022-10-04T02:19:10.655Z,8.04
2022-10-04T02:21:39.400Z,8.06
2022-10-04T02:24:09.770Z,8.09
2022-10-04T02:26:38.446Z,8.13
2022-10-04T02:29:07.181Z,8.18
2022-10-04T02:31:56.346Z,8.23
2022-10-04T02:34:24.622Z,8.29
2022-10-04T02:36:53.515Z,8.32
2022-10-04T02:39:32.904Z,8.34
2022-10-04T02:42:13.112Z,8.32
2022-10-04T02:44:49.587Z,8.29
2022-10-04T02:47:21.861Z,8.24
2022-10-04T02:49:58.631Z,8.20
2022-10-04T02:52:47.251Z,8.15
2022-10-04T02:55:26.745Z,8.09
2022-10-04T02:57:55.865Z,8.02
2022-10-04T03:00:32.155Z,7.96
2022-10-04T03:03:12.714Z,7.88
2022-10-04T03:05:41.122Z,7.81
2022-10-04T03:08:09.222Z,7.77
2022-10-04T03:10:37.369Z,7.72
2022-10-04T03:13:05.677Z,7.68
2022-10-04T03:15:33.803Z,7.63
2022-10-04T03:18:02.448Z,7.59
2022-10-04T03:20:31.037Z,7.57
2022-10-04T03:23:02.161Z,7.54
2022-10-04T03:25:41.806Z,7.52
2022-10-04T03:28:10.116Z,7.50
2022-10-04T03:30:44.503Z,7.49
2022-10-04T03:33:21.081Z,7.48
2022-10-04T03:35:58.202Z,7.47
2022-10-04T03:38:28.077Z,7.46
2022-10-04T03:40:59.420Z,7.44
2022-10-04T03:43:31.958Z,7.42
2022-10-04T03:46:10.938Z,7.41
2022-10-04T03:48:43.663Z,7.38
2022-10-04T03:51:18.946Z,7.33
2022-10-04T03:53:52.959Z,7.31
2022-10-04T03:56:36.186Z,7.28
2022-10-04T03:59:08.262Z,7.25
2022-10-04T04:01:41.364Z,7.22
2022-10-04T04:04:36.600Z,7.19
2022-10-04T04:07:20.105Z,7.16
2022-10-04T04:09:51.424Z,7.11
2022-10-04T04:12:34.357Z,7.08
2022-10-04T04:15:03.652Z,7.05
2022-10-04T04:17:44.180Z,7.03
2022-10-04T04:20:34.888Z,7.00
2022-10-04T04:23:02.998Z,6.97
2022-10-04T04:25:34.968Z,6.95
2022-10-04T04:28:14.145Z,6.93
2022-10-04T04:30:49.839Z,6.93
2022-10-04T04:33:27.378Z,6.92
2022-10-04T04:36:12.502Z,6.92
2022-10-04T04:38:59.008Z,6.90
2022-10-04T04:41:35.533Z,6.86
2022-10-04T04:44:05.216Z,6.84
2022-10-04T04:46:33.535Z,6.81
2022-10-04T04:49:08.164Z,6.78
2022-10-04T04:51:36.469Z,6.76
2022-10-04T04:54:07.563Z,6.73
2022-10-04T04:56:36.093Z,6.70
2022-10-04T04:59:07.802Z,6.68
2022-10-04T05:01:42.734Z,6.66
2022-10-04T05:04:14.138Z,6.65
2022-10-04T05:07:06.430Z,6.65
2022-10-04T05:09:37.440Z,6.67
2022-10-04T05:12:18.290Z,6.71
2022-10-04T05:14:52.401Z,6.78
2022-10-04T05:17:27.639Z,6.89
2022-10-04T05:20:01.931Z,7.04
2022-10-04T05:22:31.875Z,7.23
2022-10-04T05:25:07.897Z,7.46
2022-10-04T05:27:42.970Z,7.77
2022-10-04T05:30:31.008Z,8.06
2022-10-04T05:33:17.003Z,8.27
2022-10-04T05:36:01.148Z,8.43
2022-10-04T05:38:52.913Z,8.60
2022-10-04T05:41:52.664Z,8.73
2022-10-04T05:44:36.672Z,8.86
2022-10-04T05:47:08.302Z,9.01
2022-10-04T05:49:46.646Z,9.27
2022-10-04T05:52:25.585Z,9.89
2022-10-04T05:55:14.596Z,11.32
2022-10-04T05:57:50.959Z,13.22
2022-10-04T06:00:33.985Z,15.08
2022-10-04T06:03:43.469Z,16.95
2022-10-04T06:07:09.968Z,18.94
2022-10-04T06:09:55.470Z,18.89
2022-10-04T06:12:52.194Z,18.05
2022-10-04T06:15:45.045Z,17.17
2022-10-04T06:18:36.433Z,16.32
2022-10-04T06:21:23.701Z,15.53
2022-10-04T06:24:04.261Z,15.11
2022-10-04T06:26:56.702Z,15.02
2022-10-04T06:29:32.143Z,14.98
2022-10-04T06:32:19.800Z,14.90
2022-10-04T06:35:01.672Z,14.95
2022-10-04T06:37:59.273Z,15.89
2022-10-04T06:41:00.089Z,17.79
2022-10-04T06:43:40.810Z,19.60
2022-10-04T06:46:18.379Z,20.64
2022-10-04T06:49:14.370Z,21.07
2022-10-04T06:52:00.974Z,21.07
2022-10-04T06:54:38.421Z,20.45
2022-10-04T06:57:10.160Z,19.46
2022-10-04T06:59:56.323Z,18.79
2022-10-04T07:02:42.285Z,18.30
2022-10-04T07:05:30.867Z,17.92
2022-10-04T07:08:47.477Z,17.34
2022-10-04T07:11:30.396Z,16.79
2022-10-04T07:13:58.879Z,16.36
2022-10-04T07:16:36.471Z,15.96
2022-10-04T07:19:25.046Z,15.68
2022-10-04T07:22:08.671Z,15.50
2022-10-04T07:24:43.293Z,15.40
2022-10-04T07:27:17.946Z,15.15
2022-10-04T07:29:53.164Z,14.84
2022-10-04T07:32:28.837Z,14.39
2022-10-04T07:35:16.980Z,14.07
2022-10-04T07:38:13.497Z,13.83
2022-10-04T07:41:10.133Z,13.57
2022-10-04T07:43:48.949Z,13.36
2022-10-04T07:46:40.584Z,13.18
2022-10-04T07:49:16.859Z,13.08
2022-10-04T07:52:04.677Z,13.00
2022-10-04T07:55:08.911Z,13.01
2022-10-04T07:57:49.663Z,13.03
2022-10-04T08:00:35.868Z,13.07
2022-10-04T08:03:39.383Z,13.33
2022-10-04T08:06:14.618Z,13.59
2022-10-04T08:09:03.630Z,13.75
2022-10-04T08:11:41.024Z,13.78
2022-10-04T08:14:21.436Z,13.69
2022-10-04T08:17:01.204Z,13.65
2022-10-04T08:20:02.124Z,13.65
2022-10-04T08:22:30.402Z,13.70
2022-10-04T08:25:04.614Z,14.04
2022-10-04T08:28:07.832Z,14.75
2022-10-04T08:31:07.338Z,15.50
2022-10-04T08:33:47.972Z,16.20
2022-10-04T08:36:25.234Z,16.66
2022-10-04T08:39:00.319Z,17.77
2022-10-04T08:41:43.754Z,18.07
2022-10-04T08:44:17.470Z,17.80
2022-10-04T08:47:12.688Z,17.48
2022-10-04T08:49:59.676Z,17.23
2022-10-04T08:52:46.895Z,16.83
2022-10-04T08:55:37.497Z,16.47
2022-10-04T08:58:18.440Z,16.16
2022-10-04T09:01:19.844Z,15.90
2022-10-04T09:04:31.925Z,15.86
2022-10-04T09:07:15.054Z,16.21
2022-10-04T09:10:01.501Z,16.75
2022-10-04T09:12:57.051Z,17.36
2022-10-04T09:15:44.665Z,18.06
2022-10-04T09:18:12.673Z,18.76
2022-10-04T09:21:02.763Z,19.31
2022-10-04T09:23:31.354Z,19.69
2022-10-04T09:26:44.222Z,19.85
2022-10-04T09:29:53.094Z,19.99
2022-10-04T09:32:41.034Z,20.20
2022-10-04T09:35:24.361Z,20.30
2022-10-04T09:38:29.911Z,20.27
2022-10-04T09:41:16.620Z,20.33
2022-10-04T09:44:00.979Z,20.17
2022-10-04T09:46:51.191Z,19.95
2022-10-04T09:49:47.402Z,19.40
2022-10-04T09:52:21.507Z,19.26
2022-10-04T09:54:58.489Z,19.27
2022-10-04T09:58:04.346Z,19.04
2022-10-04T10:00:47.787Z,18.88
2022-10-04T10:03:57.164Z,18.81
2022-10-04T10:06:41.693Z,18.66
2022-10-04T10:09:13.334Z,18.37
2022-10-04T10:12:36.194Z,18.11
2022-10-04T10:15:28.272Z,18.09
2022-10-04T10:18:56.198Z,18.24
2022-10-04T10:21:42.853Z,18.33
2022-10-04T10:24:30.233Z,18.32
2022-10-04T10:27:30.506Z,18.23
2022-10-04T10:30:10.565Z,18.15
2022-10-04T10:33:10.838Z,18.19
2022-10-04T10:36:21.714Z,18.36
2022-10-04T10:39:17.433Z,18.53
2022-10-04T10:42:06.521Z,18.62
2022-10-04T10:44:41.737Z,18.65
2022-10-04T10:47:16.188Z,18.58
2022-10-04T10:49:54.158Z,18.39
2022-10-04T10:52:46.926Z,18.12
2022-10-04T10:55:43.255Z,17.82
2022-10-04T10:58:52.179Z,17.42
2022-10-04T11:01:35.631Z,17.04
2022-10-04T11:04:12.531Z,16.73
2022-10-04T11:06:58.890Z,16.39
2022-10-04T11:10:08.332Z,16.06
2022-10-04T11:13:07.433Z,15.85
2022-10-04T11:16:16.407Z,15.69
2022-10-04T11:19:21.787Z,15.60
2022-10-04T11:22:08.518Z,15.50
2022-10-04T11:24:46.712Z,15.37
2022-10-04T11:27:48.792Z,15.24
2022-10-04T11:30:26.800Z,15.07
2022-10-04T11:33:10.461Z,14.89
2022-10-04T11:35:58.150Z,14.75
2022-10-04T11:38:27.473Z,14.65
2022-10-04T11:41:16.798Z,14.57
2022-10-04T11:43:47.636Z,14.48
2022-10-04T11:46:29.754Z,14.36
2022-10-04T11:49:25.316Z,14.23
2022-10-04T11:52:17.801Z,14.10
2022-10-04T11:55:21.317Z,13.91
2022-10-04T11:58:03.080Z,13.74
2022-10-04T12:00:58.746Z,13.52
2022-10-04T12:03:47.570Z,13.31
2022-10-04T12:06:50.548Z,13.11
2022-10-04T12:10:02.037Z,12.89
2022-10-04T12:12:47.326Z,12.69
2022-10-04T12:15:52.679Z,12.58
2022-10-04T12:18:33.257Z,12.48
2022-10-04T12:21:22.575Z,12.40
2022-10-04T12:24:05.552Z,12.34
2022-10-04T12:26:52.859Z,12.30
2022-10-04T12:29:42.922Z,12.28
2022-10-04T12:32:20.210Z,12.31
2022-10-04T12:35:45.215Z,12.34
2022-10-04T12:38:28.341Z,12.44
2022-10-04T12:40:56.394Z,12.52
2022-10-04T12:43:45.790Z,12.57
2022-10-04T12:46:21.811Z,12.63
2022-10-04T12:49:01.929Z,12.68
2022-10-04T12:51:42.971Z,12.76
2022-10-04T12:54:32.169Z,12.82
2022-10-04T12:57:25.982Z,12.88
2022-10-04T13:00:20.719Z,12.93
2022-10-04T13:02:49.089Z,12.94
2022-10-04T13:05:30.069Z,12.94
2022-10-04T13:08:21.285Z,12.97
2022-10-04T13:11:21.507Z,12.98
2022-10-04T13:14:08.624Z,13.03
2022-10-04T13:17:31.101Z,13.07
2022-10-04T13:20:26.397Z,13.10
2022-10-04T13:23:15.630Z,13.15
2022-10-04T13:25:53.045Z,13.18
2022-10-04T13:28:39.836Z,13.13
2022-10-04T13:31:13.744Z,13.15
2022-10-04T13:34:12.735Z,13.19
2022-10-04T13:36:46.685Z,13.17
2022-10-04T13:40:01.506Z,13.16
2022-10-04T13:42:36.981Z,13.16
2022-10-04T13:45:49.528Z,13.22
2022-10-04T13:48:26.987Z,13.32
2022-10-04T13:51:01.513Z,13.44
2022-10-04T13:54:00.305Z,13.54
2022-10-04T13:56:58.893Z,13.66
2022-10-04T13:59:42.768Z,13.77
2022-10-04T14:02:47.874Z,13.84
2022-10-04T14:05:43.491Z,13.96
2022-10-04T14:08:45.935Z,14.04
2022-10-04T14:11:14.043Z,14.02
2022-10-04T14:14:01.902Z,13.93
2022-10-04T14:16:57.569Z,13.86
2022-10-04T14:20:06.937Z,13.78
2022-10-04T14:23:02.809Z,13.70
2022-10-04T14:25:58.891Z,13.63
2022-10-04T14:28:46.015Z,13.60
2022-10-04T14:31:21.266Z,13.61
2022-10-04T14:34:01.710Z,13.62
2022-10-04T14:36:36.506Z,13.61
2022-10-04T14:39:19.410Z,13.55
2022-10-04T14:42:31.462Z,13.45
2022-10-04T14:45:18.891Z,13.32
2022-10-04T14:48:12.103Z,13.21
2022-10-04T14:51:21.649Z,13.12
2022-10-04T14:54:05.659Z,13.04
2022-10-04T14:56:45.909Z,12.94
2022-10-04T14:59:14.174Z,12.84
2022-10-04T15:02:13.162Z,12.71
2022-10-04T15:05:03.156Z,12.57
2022-10-04T15:07:45.156Z,12.44
2022-10-04T15:10:28.256Z,12.31
2022-10-04T15:13:12.251Z,12.18
2022-10-04T15:15:47.069Z,12.03
2022-10-04T15:18:55.060Z,11.92
2022-10-04T15:21:51.191Z,11.79
2022-10-04T15:24:19.136Z,11.64
2022-10-04T15:26:57.782Z,11.52
2022-10-04T15:29:36.305Z,11.38
2022-10-04T15:32:26.761Z,11.24
2022-10-04T15:34:55.072Z,11.12
2022-10-04T15:37:53.930Z,11.01
2022-10-04T15:40:40.990Z,10.89
2022-10-04T15:43:24.778Z,10.79
2022-10-04T15:46:25.432Z,10.69
2022-10-04T15:49:06.359Z,10.58
2022-10-04T15:52:10.834Z,10.46
2022-10-04T15:55:17.861Z,10.34
2022-10-04T15:57:46.245Z,10.23
2022-10-04T16:00:22.551Z,10.13
2022-10-04T16:03:02.961Z,10.02
2022-10-04T16:06:08.433Z,9.91
2022-10-04T16:09:17.263Z,9.77
2022-10-04T16:11:48.483Z,9.63
2022-10-04T16:14:27.919Z,9.51
2022-10-04T16:17:26.934Z,9.39
2022-10-04T16:20:10.044Z,9.29
2022-10-04T16:22:38.483Z,9.18
2022-10-04T16:25:24.759Z,9.08
2022-10-04T16:27:58.856Z,8.99
2022-10-04T16:30:50.755Z,8.90
2022-10-04T16:33:57.690Z,8.81
2022-10-04T16:36:44.673Z,8.75
2022-10-04T16:39:59.673Z,8.69
2022-10-04T16:43:18.237Z,8.63
2022-10-04T16:45:49.727Z,8.58
2022-10-04T16:48:33.746Z,8.53
2022-10-04T16:51:04.795Z,8.47
2022-10-04T16:53:48.261Z,8.41
2022-10-04T16:56:24.592Z,8.35
2022-10-04T16:59:04.639Z,8.28
2022-10-04T17:02:23.180Z,8.21
2022-10-04T17:05:17.263Z,8.12
2022-10-04T17:07:57.759Z,8.05
2022-10-04T17:10:42.625Z,8.00
2022-10-04T17:13:36.261Z,7.94
2022-10-04T17:16:32.302Z,7.87
2022-10-04T17:19:16.069Z,7.78
2022-10-04T17:22:06.031Z,7.72
2022-10-04T17:24:43.714Z,7.66
2022-10-04T17:27:28.271Z,7.58
2022-10-04T17:30:12.715Z,7.51
2022-10-04T17:33:28.517Z,7.42
2022-10-04T17:36:14.405Z,7.33
2022-10-04T17:38:50.368Z,7.25
2022-10-04T17:41:57.655Z,7.17
2022-10-04T17:44:43.698Z,7.08
2022-10-04T17:47:55.350Z,6.99
2022-10-04T17:50:54.886Z,6.91
2022-10-04T17:53:47.611Z,6.83
2022-10-04T17:56:30.834Z,6.75
2022-10-04T17:58:59.732Z,6.69
2022-10-04T18:01:35.099Z,6.62
2022-10-04T18:04:30.431Z,6.56
2022-10-04T18:07:04.901Z,6.50
2022-10-04T18:09:48.434Z,6.44
2022-10-04T18:12:45.689Z,6.41
2022-10-04T18:15:27.390Z,6.39
2022-10-04T18:18:16.457Z,6.38
2022-10-04T18:20:53.628Z,6.38
2022-10-04T18:23:29.900Z,6.38
2022-10-04T18:26:05.337Z,6.37
2022-10-04T18:28:39.235Z,6.38
2022-10-04T18:31:26.899Z,6.37
2022-10-04T18:33:58.117Z,6.37
2022-10-04T18:36:51.182Z,6.36
2022-10-04T18:39:22.853Z,6.36
2022-10-04T18:42:14.668Z,6.36
2022-10-04T18:44:59.737Z,6.36
2022-10-04T18:47:39.276Z,6.37
2022-10-04T18:50:32.849Z,6.39
2022-10-04T18:53:25.736Z,6.42
2022-10-04T18:56:08.006Z,6.45
2022-10-04T18:59:28.006Z,6.49
2022-10-04T19:02:18.937Z,6.54
2022-10-04T19:05:23.954Z,6.58
2022-10-04T19:08:05.561Z,6.60
2022-10-04T19:11:03.300Z,6.62
2022-10-04T19:13:49.509Z,6.63
2022-10-04T19:16:31.228Z,6.62
2022-10-04T19:19:10.521Z,6.61
2022-10-04T19:21:45.659Z,6.60
2022-10-04T19:24:53.156Z,6.58
2022-10-04T19:27:32.285Z,6.53
2022-10-04T19:30:26.062Z,6.50
2022-10-04T19:33:20.462Z,6.47
2022-10-04T19:36:03.918Z,6.42
2022-10-04T19:38:41.170Z,6.37
2022-10-04T19:41:27.366Z,6.31
2022-10-04T19:44:34.353Z,6.26
2022-10-04T19:47:20.756Z,6.19
2022-10-04T19:49:53.230Z,6.15
2022-10-04T19:52:54.949Z,6.10
2022-10-04T19:55:59.824Z,6.04
2022-10-04T19:58:32.402Z,6.00
2022-10-04T20:01:33.668Z,5.95
2022-10-04T20:04:25.901Z,5.90
2022-10-04T20:06:57.035Z,5.83
2022-10-04T20:10:17.022Z,5.79
2022-10-04T20:13:08.034Z,5.71
2022-10-04T20:15:39.280Z,5.66
2022-10-04T20:18:33.481Z,5.61
2022-10-04T20:21:10.752Z,5.55
2022-10-04T20:24:04.633Z,5.50
2022-10-04T20:26:55.012Z,5.45
2022-10-04T20:29:38.049Z,5.39
2022-10-04T20:32:34.576Z,5.34
2022-10-04T20:35:06.555Z,5.28
2022-10-04T20:42:19.899Z,5.17
2022-10-04T20:45:20.710Z,5.10
2022-10-04T20:47:59.267Z,5.04
2022-10-04T20:50:37.375Z,4.99
2022-10-04T20:53:15.163Z,4.95
2022-10-04T20:55:51.584Z,4.91
2022-10-04T20:58:35.328Z,4.87
2022-10-04T21:01:58.075Z,4.84
2022-10-04T21:04:33.088Z,4.80
2022-10-04T21:07:26.947Z,4.76
2022-10-04T21:10:07.846Z,4.71
2022-10-04T21:12:35.993Z,4.66
2022-10-04T21:15:21.067Z,4.63
2022-10-04T21:18:07.389Z,4.59
2022-10-04T21:20:52.870Z,4.53
2022-10-04T21:23:30.434Z,4.48
2022-10-04T21:26:23.420Z,4.44
2022-10-04T21:28:54.639Z,4.41
2022-10-04T21:31:24.861Z,4.39
2022-10-04T21:34:48.182Z,4.36
2022-10-04T21:37:10.479Z,4.32
2022-10-04T21:39:50.109Z,4.29
2022-10-04T21:42:18.694Z,4.26
2022-10-04T21:45:07.464Z,4.24
2022-10-04T21:47:37.677Z,4.21
2022-10-04T21:50:07.511Z,4.17
2022-10-04T21:52:40.274Z,4.15
2022-10-04T21:55:10.906Z,4.12
2022-10-04T21:57:39.384Z,4.09
2022-10-04T22:00:10.662Z,4.06
2022-10-04T22:02:43.744Z,4.03
2022-10-04T22:05:26.838Z,4.00
2022-10-04T22:07:55.017Z,3.97
2022-10-04T22:10:57.845Z,3.93
2022-10-04T22:13:36.217Z,3.90
2022-10-04T22:16:27.378Z,3.87
2022-10-04T22:19:53.360Z,3.84
2022-10-04T22:22:26.345Z,3.82
2022-10-04T22:24:55.955Z,3.80
2022-10-04T22:27:51.992Z,3.78
2022-10-04T22:30:27.192Z,3.76
2022-10-04T22:32:58.485Z,3.75
2022-10-04T22:35:30.224Z,3.74
2022-10-04T22:38:00.001Z,3.73
2022-10-04T22:40:40.713Z,3.72
2022-10-04T22:43:14.459Z,3.71
2022-10-04T22:45:43.526Z,3.69
2022-10-04T22:48:15.648Z,3.68
2022-10-04T22:50:43.757Z,3.66
2022-10-04T22:53:16.308Z,3.65
2022-10-04T22:55:44.260Z,3.62
2022-10-04T22:58:16.812Z,3.60
2022-10-04T23:00:45.442Z,3.57
2022-10-04T23:03:34.664Z,3.54
2022-10-04T23:06:03.191Z,3.52
2022-10-04T23:08:31.427Z,3.51
2022-10-04T23:11:00.825Z,3.49
2022-10-04T23:13:28.974Z,3.48
2022-10-04T23:16:10.002Z,3.46
2022-10-04T23:18:38.864Z,3.43
2022-10-04T23:21:19.838Z,3.41
2022-10-04T23:23:48.883Z,3.39
2022-10-04T23:26:23.482Z,3.37
2022-10-04T23:28:52.042Z,3.36
2022-10-04T23:31:24.921Z,3.33
2022-10-04T23:33:56.675Z,3.31
2022-10-04T23:36:25.064Z,3.29
2022-10-04T23:38:59.094Z,3.28
2022-10-04T23:41:27.351Z,3.27
2022-10-04T23:43:55.733Z,3.27
2022-10-04T23:46:24.779Z,3.26
2022-10-04T23:48:52.911Z,3.24
2022-10-04T23:51:21.540Z,3.23
2022-10-04T23:53:50.580Z,3.21
2022-10-04T23:56:25.004Z,3.20
2022-10-04T23:58:55.642Z,3.19
